createdAt,value
2024-01-15T00:02:07.124Z,35.28
2024-01-15T00:04:40.426Z,48.20
2024-01-15T00:07:16.700Z,47.97
2024-01-15T00:09:49.645Z,46.38
2024-01-15T00:12:22.524Z,43.20
2024-01-15T00:14:55.796Z,26.67
2024-01-15T00:17:28.721Z,40.00
2024-01-15T00:20:01.608Z,52.05
2024-01-15T00:22:36.688Z,51.05
2024-01-15T00:25:10.128Z,48.33
2024-01-15T00:27:43.188Z,45.25
2024-01-15T00:30:16.413Z,46.03
2024-01-15T00:32:49.374Z,44.90
2024-01-15T00:35:22.298Z,37.35
2024-01-15T00:37:56.523Z,44.53
2024-01-15T00:40:29.465Z,42.40
2024-01-15T00:43:03.254Z,54.35
2024-01-15T00:45:36.248Z,45.13
2024-01-15T00:48:09.833Z,32.05
2024-01-15T00:50:42.735Z,24.75
2024-01-15T00:53:16.937Z,42.20
2024-01-15T00:55:49.859Z,42.88
2024-01-15T00:58:22.734Z,29.27
2024-01-15T01:00:56.369Z,40.63
2024-01-15T01:03:29.631Z,31.30
2024-01-15T01:06:02.620Z,44.25
2024-01-15T01:08:37.022Z,34.47
2024-01-15T01:11:10.845Z,29.35
2024-01-15T01:13:43.973Z,37.05
2024-01-15T01:16:16.921Z,40.10
2024-01-15T01:18:50.016Z,34.50
2024-01-15T01:21:23.253Z,38.90
2024-01-15T01:23:57.526Z,30.42
2024-01-15T01:26:30.720Z,35.65
2024-01-15T01:29:03.626Z,29.35
2024-01-15T01:31:36.588Z,25.67
2024-01-15T01:34:09.581Z,31.23
2024-01-15T01:36:42.483Z,31.45
2024-01-15T01:39:16.754Z,13.75
2024-01-15T01:41:52.421Z,44.72
2024-01-15T01:44:25.377Z,43.22
2024-01-15T01:46:59.067Z,35.60
2024-01-15T01:49:32.376Z,32.53
2024-01-15T01:52:08.206Z,33.22
2024-01-15T01:54:44.777Z,34.33
2024-01-15T01:57:20.315Z,28.30
2024-01-15T01:59:53.776Z,39.28
2024-01-15T02:02:27.515Z,49.45
2024-01-15T02:05:00.529Z,37.65
2024-01-15T02:07:34.627Z,37.97
2024-01-15T02:10:09.478Z,47.47
2024-01-15T02:12:42.940Z,26.88
2024-01-15T02:15:16.071Z,40.60
2024-01-15T02:18:03.024Z,41.20
2024-01-15T02:20:36.661Z,42.08
2024-01-15T02:23:15.701Z,40.80
2024-01-15T02:25:49.296Z,37.83
2024-01-15T02:28:22.299Z,43.03
2024-01-15T02:30:55.293Z,31.77
2024-01-15T02:33:28.425Z,39.10
2024-01-15T02:36:01.360Z,35.22
2024-01-15T02:38:35.561Z,29.60
2024-01-15T02:41:08.561Z,45.95
2024-01-15T02:43:41.394Z,31.40
2024-01-15T02:46:14.492Z,35.35
2024-01-15T02:48:47.551Z,39.95
2024-01-15T02:51:20.672Z,29.63
2024-01-15T02:53:54.946Z,28.88
2024-01-15T02:56:27.910Z,22.48
2024-01-15T02:59:01.118Z,34.17
2024-01-15T03:01:34.284Z,34.78
2024-01-15T03:04:07.502Z,34.88
2024-01-15T03:06:40.421Z,39.17
2024-01-15T03:09:14.762Z,36.85
2024-01-15T03:11:47.962Z,33.33
2024-01-15T03:14:21.482Z,41.20
2024-01-15T03:16:54.466Z,36.55
2024-01-15T03:19:27.345Z,35.00
2024-01-15T03:22:01.826Z,38.17
2024-01-15T03:24:36.042Z,35.20
2024-01-15T03:27:09.088Z,37.78
2024-01-15T03:29:42.274Z,37.28
2024-01-15T03:32:17.065Z,32.05
2024-01-15T03:34:50.222Z,29.27
2024-01-15T03:37:23.259Z,33.60
2024-01-15T03:39:58.088Z,31.77
2024-01-15T03:42:31.033Z,32.45
2024-01-15T03:45:04.166Z,35.00
2024-01-15T03:47:36.977Z,34.10
2024-01-15T03:50:10.799Z,31.15
2024-01-15T03:52:43.667Z,36.50
2024-01-15T03:55:17.930Z,31.10
2024-01-15T03:57:50.833Z,31.38
2024-01-15T04:00:23.721Z,34.05
2024-01-15T04:02:56.535Z,42.92
2024-01-15T04:05:29.391Z,29.77
2024-01-15T04:08:02.328Z,35.17
2024-01-15T04:10:36.748Z,37.28
2024-01-15T04:13:09.548Z,28.08
2024-01-15T04:15:42.522Z,33.15
2024-01-15T04:18:15.473Z,33.72
2024-01-15T04:20:48.312Z,40.28
2024-01-15T04:23:21.175Z,39.60
2024-01-15T04:25:55.346Z,36.55
2024-01-15T04:28:28.220Z,38.20
2024-01-15T04:31:01.115Z,37.83
2024-01-15T04:33:34.164Z,44.45
2024-01-15T04:36:08.935Z,35.80
2024-01-15T04:38:41.769Z,32.03
2024-01-15T04:41:16.532Z,38.85
2024-01-15T04:43:49.444Z,38.55
2024-01-15T04:46:22.281Z,39.35
2024-01-15T04:48:55.235Z,36.58
2024-01-15T04:51:28.202Z,39.25
2024-01-15T04:54:01.188Z,38.28
2024-01-15T04:56:35.338Z,34.67
2024-01-15T04:59:08.101Z,35.90
2024-01-15T05:01:40.938Z,33.63
2024-01-15T05:04:13.997Z,38.63
2024-01-15T05:06:46.875Z,32.28
2024-01-15T05:09:19.930Z,41.53
2024-01-15T05:11:54.154Z,39.50
2024-01-15T05:14:34.260Z,36.67
2024-01-15T05:19:44.326Z,28.98
2024-01-15T05:22:17.435Z,36.08
2024-01-15T05:24:50.404Z,47.50
2024-01-15T05:27:24.667Z,37.47
2024-01-15T05:29:57.496Z,37.67
2024-01-15T05:32:30.643Z,34.80
2024-01-15T05:35:03.786Z,28.80
2024-01-15T05:37:36.624Z,32.75
2024-01-15T05:40:10.516Z,35.08
2024-01-15T05:42:45.127Z,37.28
2024-01-15T05:45:18.607Z,30.98
2024-01-15T05:47:51.796Z,36.28
2024-01-15T05:50:24.713Z,22.25
2024-01-15T05:52:57.792Z,31.27
2024-01-15T05:55:30.707Z,32.90
2024-01-15T05:58:05.114Z,23.33
2024-01-15T06:00:39.523Z,33.78
2024-01-15T06:03:12.664Z,40.05
2024-01-15T06:05:45.765Z,36.88
2024-01-15T06:08:18.570Z,33.97
2024-01-15T06:10:51.327Z,43.10
2024-01-15T06:13:25.511Z,33.00
2024-01-15T06:15:58.486Z,33.10
2024-01-15T06:18:31.313Z,30.75
2024-01-15T06:21:04.430Z,33.78
2024-01-15T06:23:37.336Z,40.05
2024-01-15T06:26:10.631Z,42.60
2024-01-15T06:28:44.753Z,34.38
2024-01-15T06:31:17.793Z,33.47
2024-01-15T06:33:50.954Z,34.15
2024-01-15T06:36:23.922Z,39.88
2024-01-15T06:38:57.192Z,28.20
2024-01-15T06:41:29.938Z,32.40
2024-01-15T06:44:04.107Z,32.22
2024-01-15T06:46:37.021Z,27.65
2024-01-15T06:49:09.860Z,31.77
2024-01-15T06:51:43.522Z,34.20
2024-01-15T06:54:16.991Z,32.55
2024-01-15T06:56:49.941Z,36.50
2024-01-15T06:59:24.110Z,35.90
2024-01-15T07:01:57.297Z,32.25
2024-01-15T07:04:30.237Z,24.50
2024-01-15T07:07:03.064Z,32.33
2024-01-15T07:09:35.962Z,34.80
2024-01-15T07:12:08.990Z,32.67
2024-01-15T07:14:43.186Z,28.80
2024-01-15T07:17:18.587Z,32.80
2024-01-15T07:19:51.408Z,33.40
2024-01-15T07:22:24.466Z,25.35
2024-01-15T07:24:57.367Z,30.80
2024-01-15T07:27:30.254Z,31.17
2024-01-15T07:30:06.518Z,30.27
2024-01-15T07:32:39.714Z,30.23
2024-01-15T07:35:12.631Z,28.88
2024-01-15T07:37:45.401Z,36.08
2024-01-15T07:40:18.332Z,31.50
2024-01-15T07:42:51.168Z,25.35
2024-01-15T07:45:25.525Z,32.95
2024-01-15T07:47:58.428Z,31.95
2024-01-15T07:50:31.287Z,33.95
2024-01-15T07:53:05.121Z,33.63
2024-01-15T07:55:38.703Z,28.75
2024-01-15T07:58:16.208Z,33.78
2024-01-15T08:00:51.497Z,36.05
2024-01-15T08:03:24.454Z,29.52
2024-01-15T08:05:58.791Z,35.08
2024-01-15T08:08:31.668Z,32.63
2024-01-15T08:11:04.892Z,29.55
2024-01-15T08:13:37.669Z,34.70
2024-01-15T08:16:12.046Z,35.40
2024-01-15T08:18:45.418Z,35.90
2024-01-15T08:21:18.366Z,40.17
2024-01-15T08:23:51.244Z,33.58
2024-01-15T08:26:24.114Z,27.95
2024-01-15T08:28:57.028Z,33.50
2024-01-15T08:31:31.702Z,31.35
2024-01-15T08:34:04.714Z,29.08
2024-01-15T08:36:37.665Z,34.50
2024-01-15T08:39:11.242Z,27.35
2024-01-15T08:41:44.052Z,33.30
2024-01-15T08:44:17.701Z,33.20
2024-01-15T08:46:51.981Z,32.88
2024-01-15T08:49:24.874Z,27.88
2024-01-15T08:52:04.414Z,31.25
2024-01-15T08:54:39.376Z,26.17
2024-01-15T08:57:12.836Z,30.00
2024-01-15T08:59:46.346Z,31.67
2024-01-15T09:02:20.536Z,22.77
2024-01-15T09:04:53.540Z,32.08
2024-01-15T09:07:28.036Z,32.50
2024-01-15T09:10:01.022Z,26.15
2024-01-15T09:12:33.889Z,29.48
2024-01-15T09:15:07.500Z,31.65
2024-01-15T09:17:41.792Z,27.80
2024-01-15T09:20:14.780Z,23.80
2024-01-15T09:22:47.544Z,26.95
2024-01-15T09:25:20.572Z,25.63
2024-01-15T09:27:53.895Z,25.27
2024-01-15T09:30:27.149Z,24.33
2024-01-15T09:33:01.475Z,25.90
2024-01-15T09:35:35.104Z,30.85
2024-01-15T09:38:08.078Z,24.55
2024-01-15T09:40:45.155Z,23.33
2024-01-15T09:43:19.183Z,29.50
2024-01-15T09:45:53.108Z,28.25
2024-01-15T09:48:27.586Z,31.33
2024-01-15T09:51:01.009Z,29.35
2024-01-15T09:53:35.032Z,23.15
2024-01-15T09:56:08.380Z,29.83
2024-01-15T09:58:42.860Z,28.33
2024-01-15T10:01:19.073Z,28.77
2024-01-15T10:03:54.270Z,31.05
2024-01-15T10:06:29.759Z,31.15
2024-01-15T10:09:04.514Z,26.70
2024-01-15T10:11:38.098Z,26.70
2024-01-15T10:14:13.471Z,22.27
2024-01-15T10:16:46.449Z,29.27
2024-01-15T10:19:20.713Z,31.33
2024-01-15T10:21:53.958Z,29.90
2024-01-15T10:24:27.043Z,26.13
2024-01-15T10:27:07.546Z,25.95
2024-01-15T10:29:40.650Z,24.60
2024-01-15T10:32:13.859Z,28.85
2024-01-15T10:34:48.188Z,26.90
2024-01-15T10:37:21.275Z,29.30
2024-01-15T10:39:54.912Z,28.33
2024-01-15T10:42:27.847Z,34.45
2024-01-15T10:45:00.843Z,23.38
2024-01-15T10:47:34.227Z,26.25
2024-01-15T10:50:10.534Z,25.27
2024-01-15T10:52:44.190Z,20.90
2024-01-15T10:55:19.851Z,21.15
2024-01-15T10:57:54.264Z,27.10
2024-01-15T11:00:27.682Z,21.98
2024-01-15T11:03:03.353Z,21.80
2024-01-15T11:05:39.719Z,24.15
2024-01-15T11:08:13.475Z,24.83
2024-01-15T11:10:49.968Z,19.40
2024-01-15T11:13:27.229Z,29.33
2024-01-15T11:16:03.783Z,33.92
2024-01-15T11:18:41.692Z,34.75
2024-01-15T11:21:27.343Z,34.15
2024-01-15T11:24:01.613Z,24.90
2024-01-15T11:26:37.998Z,23.52
2024-01-15T11:29:13.168Z,26.63
2024-01-15T11:32:01.719Z,22.73
2024-01-15T11:34:55.103Z,26.88
2024-01-15T11:37:30.483Z,22.92
2024-01-15T11:40:06.589Z,24.90
2024-01-15T11:42:40.469Z,19.65
2024-01-15T11:45:13.546Z,23.73
2024-01-15T11:48:25.071Z,22.90
2024-01-15T11:51:02.362Z,20.75
2024-01-15T11:53:46.130Z,27.88
2024-01-15T11:56:20.135Z,17.92
2024-01-15T11:58:53.028Z,21.67
2024-01-15T12:01:26.950Z,20.98
2024-01-15T12:04:00.730Z,17.30
2024-01-15T12:06:33.725Z,15.90
2024-01-15T12:09:10.458Z,22.13
2024-01-15T12:11:52.765Z,17.83
2024-01-15T12:14:28.058Z,15.65
2024-01-15T12:17:03.723Z,17.52
2024-01-15T12:19:39.911Z,19.35
2024-01-15T12:22:13.295Z,18.67
2024-01-15T12:24:48.739Z,15.52
2024-01-15T12:27:22.481Z,18.02
2024-01-15T12:29:55.680Z,18.27
2024-01-15T12:32:28.611Z,16.67
2024-01-15T12:35:04.501Z,18.67
2024-01-15T12:37:38.134Z,11.85
2024-01-15T12:40:13.300Z,15.77
2024-01-15T12:42:46.256Z,16.45
2024-01-15T12:45:20.227Z,20.42
2024-01-15T12:47:53.501Z,14.68
2024-01-15T12:50:28.115Z,18.13
2024-01-15T12:53:01.338Z,16.23
2024-01-15T12:55:36.393Z,16.48
2024-01-15T12:58:09.758Z,17.73
2024-01-15T13:00:42.901Z,14.73
2024-01-15T13:03:15.996Z,15.98
2024-01-15T13:05:50.129Z,17.42
2024-01-15T13:08:24.990Z,16.73
2024-01-15T13:10:59.343Z,15.65
2024-01-15T13:13:35.566Z,15.30
2024-01-15T13:16:09.283Z,17.00
2024-01-15T13:18:42.764Z,15.57
2024-01-15T13:21:15.896Z,16.60
2024-01-15T13:23:48.814Z,17.58
2024-01-15T13:26:23.126Z,14.68
2024-01-15T13:28:55.914Z,13.40
2024-01-15T13:31:29.243Z,15.40
2024-01-15T13:34:02.254Z,13.40
2024-01-15T13:37:55.603Z,14.27
2024-01-15T13:40:30.564Z,11.63
2024-01-15T13:43:08.136Z,12.40
2024-01-15T13:45:41.063Z,10.35
2024-01-15T13:48:14.011Z,11.80
2024-01-15T13:50:47.451Z,12.18
2024-01-15T13:53:21.210Z,11.25
2024-01-15T13:55:54.064Z,10.75
2024-01-15T13:58:28.192Z,9.90
2024-01-15T14:01:01.427Z,9.32
2024-01-15T14:03:34.956Z,8.73
2024-01-15T14:06:09.958Z,9.07
2024-01-15T14:08:43.017Z,12.15
2024-01-15T14:11:15.810Z,11.02
2024-01-15T14:13:50.925Z,14.35
2024-01-15T14:16:26.069Z,8.52
2024-01-15T14:18:59.365Z,9.48
2024-01-15T14:21:32.877Z,10.65
2024-01-15T14:24:06.918Z,8.32
2024-01-15T14:26:40.380Z,8.80
2024-01-15T14:29:14.728Z,8.55
2024-01-15T14:31:47.938Z,9.88
2024-01-15T14:34:23.501Z,10.88
2024-01-15T14:36:56.727Z,9.55
2024-01-15T14:39:29.822Z,11.93
2024-01-15T14:42:02.646Z,12.02
2024-01-15T14:44:39.404Z,9.38
2024-01-15T14:47:13.736Z,10.05
2024-01-15T14:49:46.624Z,11.15
2024-01-15T14:52:19.634Z,8.90
2024-01-15T14:54:52.546Z,10.07
2024-01-15T14:57:25.452Z,10.30
2024-01-15T14:59:59.818Z,10.48
2024-01-15T15:02:33.284Z,9.13
2024-01-15T15:05:06.971Z,10.15
2024-01-15T15:07:40.007Z,9.20
2024-01-15T15:10:13.341Z,9.00
2024-01-15T15:12:46.309Z,13.15
2024-01-15T15:15:21.862Z,11.45
2024-01-15T15:17:56.044Z,12.25
2024-01-15T15:20:29.022Z,9.57
2024-01-15T15:23:01.950Z,12.38
2024-01-15T15:25:34.710Z,10.90
2024-01-15T15:28:08.302Z,13.40
2024-01-15T15:30:42.842Z,9.65
2024-01-15T15:33:17.050Z,9.07
2024-01-15T15:35:52.260Z,9.88
2024-01-15T15:38:25.120Z,13.45
2024-01-15T15:40:58.136Z,11.23
2024-01-15T15:43:31.916Z,12.75
2024-01-15T15:46:06.406Z,11.05
2024-01-15T15:48:39.385Z,11.63
2024-01-15T15:51:12.679Z,13.07
2024-01-15T15:53:45.480Z,11.02
2024-01-15T15:56:18.375Z,12.18
2024-01-15T15:58:51.197Z,10.63
2024-01-15T16:01:25.601Z,12.15
2024-01-15T16:03:58.702Z,10.85
2024-01-15T16:06:31.595Z,14.70
2024-01-15T16:09:04.992Z,12.27
2024-01-15T16:11:37.870Z,11.38
2024-01-15T16:14:10.812Z,14.65
2024-01-15T16:23:12.468Z,13.98
2024-01-15T16:23:26.296Z,13.88
2024-01-15T16:23:42.078Z,10.85
2024-01-15T16:25:24.423Z,10.02
2024-01-15T16:28:00.844Z,12.02
2024-01-15T16:30:41.962Z,11.38
2024-01-15T16:33:19.835Z,14.02
2024-01-15T16:35:53.186Z,12.95
2024-01-15T16:38:26.066Z,13.10
2024-01-15T16:40:59.047Z,13.90
2024-01-15T16:43:31.922Z,12.55
2024-01-15T16:46:04.818Z,13.95
2024-01-15T16:48:39.787Z,11.23
2024-01-15T16:51:13.726Z,16.02
2024-01-15T16:53:46.549Z,13.02
2024-01-15T16:56:19.361Z,13.02
2024-01-15T16:58:52.869Z,13.77
2024-01-15T17:01:26.629Z,15.23
2024-01-15T17:04:00.816Z,13.75
2024-01-15T17:06:33.769Z,15.90
2024-01-15T17:09:06.800Z,13.48
2024-01-15T17:11:39.706Z,10.18
2024-01-15T17:14:12.598Z,12.73
2024-01-15T17:16:47.494Z,14.45
2024-01-15T17:19:21.734Z,14.80
2024-01-15T17:21:54.984Z,16.00
2024-01-15T17:24:27.800Z,15.68
2024-01-15T17:27:00.623Z,11.68
2024-01-15T17:29:33.485Z,11.98
2024-01-15T17:32:07.587Z,11.07
2024-01-15T17:34:41.779Z,15.50
2024-01-15T17:37:14.784Z,15.18
2024-01-15T17:39:47.897Z,12.32
2024-01-15T17:42:21.060Z,10.70
2024-01-15T17:44:53.840Z,13.32
2024-01-15T17:47:27.042Z,12.75
2024-01-15T17:50:01.352Z,16.15
2024-01-15T17:52:34.199Z,15.25
2024-01-15T17:55:07.761Z,18.65
2024-01-15T17:57:40.714Z,15.32
2024-01-15T18:00:15.721Z,16.15
2024-01-15T18:02:48.615Z,12.80
2024-01-15T18:05:22.879Z,12.55
2024-01-15T18:07:55.851Z,11.07
2024-01-15T18:10:28.838Z,12.98
2024-01-15T18:13:01.993Z,13.40
2024-01-15T18:15:37.513Z,11.75
2024-01-15T18:18:10.736Z,12.05
2024-01-15T18:21:08.996Z,12.88
2024-01-15T18:23:53.014Z,14.02
2024-01-15T18:26:25.786Z,7.70
2024-01-15T18:28:58.734Z,12.88
2024-01-15T18:31:31.656Z,10.00
2024-01-15T18:34:04.654Z,11.60
2024-01-15T18:36:38.917Z,11.55
2024-01-15T18:39:11.752Z,14.10
2024-01-15T18:41:44.807Z,16.23
2024-01-15T18:44:18.149Z,12.02
2024-01-15T18:46:50.972Z,8.35
2024-01-15T18:49:24.365Z,12.45
2024-01-15T18:51:58.855Z,9.07
2024-01-15T18:54:48.345Z,12.63
2024-01-15T18:57:21.451Z,9.38
2024-01-15T18:59:54.315Z,12.48
2024-01-15T19:02:33.450Z,9.43
2024-01-15T19:05:07.293Z,7.75
2024-01-15T19:07:41.908Z,13.32
2024-01-15T19:10:17.045Z,13.90
2024-01-15T19:12:50.953Z,15.23
2024-01-15T19:15:23.737Z,12.52
2024-01-15T19:17:56.719Z,9.90
2024-01-15T19:20:29.919Z,12.10
2024-01-15T19:23:05.846Z,9.40
2024-01-15T19:25:38.723Z,12.27
2024-01-15T19:28:11.742Z,7.60
2024-01-15T19:30:44.716Z,14.70
2024-01-15T19:33:18.659Z,11.98
2024-01-15T19:35:51.746Z,13.30
2024-01-15T19:38:29.456Z,13.93
2024-01-15T19:41:04.169Z,11.18
2024-01-15T19:43:38.627Z,11.18
2024-01-15T19:46:11.803Z,10.60
2024-01-15T19:48:46.132Z,14.63
2024-01-15T19:51:19.048Z,11.70
2024-01-15T19:53:53.234Z,11.50
2024-01-15T19:56:26.074Z,10.05
2024-01-15T19:58:59.011Z,10.20
2024-01-15T20:01:34.361Z,15.10
2024-01-15T20:04:07.212Z,16.23
2024-01-15T20:06:40.288Z,14.68
2024-01-15T20:09:14.651Z,13.85
2024-01-15T20:11:47.921Z,11.40
2024-01-15T20:14:21.665Z,19.23
2024-01-15T20:17:02.043Z,14.77
2024-01-15T20:19:41.774Z,14.57
2024-01-15T20:22:14.936Z,11.70
2024-01-15T20:24:49.360Z,11.13
2024-01-15T20:27:22.290Z,10.88
2024-01-15T20:29:55.053Z,10.23
2024-01-15T20:32:28.128Z,11.85
2024-01-15T20:35:01.379Z,14.98
2024-01-15T20:37:34.314Z,12.70
2024-01-15T20:40:10.526Z,11.25
2024-01-15T20:42:44.184Z,12.13
2024-01-15T20:45:17.007Z,12.15
2024-01-15T20:47:51.998Z,12.75
2024-01-15T20:50:28.461Z,10.75
2024-01-15T20:53:02.161Z,10.68
2024-01-15T20:55:37.385Z,13.65
2024-01-15T20:58:10.483Z,12.40
2024-01-15T21:00:43.382Z,16.35
2024-01-15T21:03:16.343Z,14.63
2024-01-15T21:05:49.495Z,9.45
2024-01-15T21:08:22.536Z,10.70
2024-01-15T21:10:56.670Z,14.55
2024-01-15T21:13:29.420Z,10.48
2024-01-15T21:16:02.360Z,14.10
2024-01-15T21:18:35.298Z,15.57
2024-01-15T21:21:08.197Z,11.52
2024-01-15T21:23:41.638Z,17.00
2024-01-15T21:26:16.148Z,14.50
2024-01-15T21:28:49.625Z,14.05
2024-01-15T21:31:22.440Z,10.13
2024-01-15T21:33:55.427Z,12.85
2024-01-15T21:36:28.257Z,11.82
2024-01-15T21:39:01.154Z,9.15
2024-01-15T21:41:35.638Z,10.07
2024-01-15T21:44:08.745Z,10.80
2024-01-15T21:46:40.613Z,10.25
2024-01-15T21:49:13.554Z,12.02
2024-01-15T21:51:46.488Z,16.08
2024-01-15T21:54:19.330Z,11.70
2024-01-15T21:56:53.414Z,9.43
2024-01-15T21:59:27.385Z,10.65
2024-01-15T22:02:09.303Z,11.13
2024-01-15T22:04:42.167Z,5.80
2024-01-15T22:07:14.914Z,9.68
2024-01-15T22:09:47.969Z,9.18
2024-01-15T22:12:22.563Z,6.45
2024-01-15T22:14:56.461Z,12.60
2024-01-15T22:17:29.988Z,9.55
2024-01-15T22:20:03.327Z,12.40
2024-01-15T22:22:36.659Z,9.80
2024-01-15T22:25:10.377Z,10.43
2024-01-15T22:27:44.508Z,9.63
2024-01-15T22:30:17.422Z,12.20
2024-01-15T22:32:50.525Z,8.00
2024-01-15T22:35:23.660Z,9.82
2024-01-15T22:37:56.580Z,10.65
2024-01-15T22:40:29.538Z,9.48
2024-01-15T22:43:03.973Z,8.07
2024-01-15T22:45:37.049Z,9.35
2024-01-15T22:48:10.432Z,10.40
2024-01-15T22:50:43.594Z,9.80
2024-01-15T22:53:16.513Z,9.85
2024-01-15T22:55:49.413Z,6.80
2024-01-15T22:58:23.544Z,9.02
2024-01-15T23:00:56.366Z,11.23
2024-01-15T23:03:29.316Z,9.05
2024-01-15T23:06:02.081Z,7.32
2024-01-15T23:08:34.889Z,13.85
2024-01-15T23:11:11.311Z,9.43
2024-01-15T23:13:45.576Z,7.53
2024-01-15T23:16:18.398Z,6.05
2024-01-15T23:18:51.214Z,8.05
2024-01-15T23:21:25.615Z,10.75
2024-01-15T23:24:01.256Z,8.30
2024-01-15T23:26:34.193Z,8.52
2024-01-15T23:29:08.461Z,8.32
2024-01-15T23:31:41.998Z,8.27
2024-01-15T23:34:14.937Z,9.25
2024-01-15T23:36:47.932Z,7.97
2024-01-15T23:39:22.653Z,10.55
2024-01-15T23:41:57.141Z,11.88
2024-01-15T23:44:31.614Z,6.72
2024-01-15T23:47:04.615Z,11.57
2024-01-15T23:49:38.014Z,7.57
2024-01-15T23:52:11.058Z,46.22
2024-01-15T23:54:51.758Z,7.45
2024-01-15T23:57:24.555Z,8.90
